createdAt,value
2022-08-22T00:09:08.463Z,6
2022-08-22T00:14:55.972Z,8
2022-08-22T00:20:43.567Z,9
2022-08-22T00:26:32.959Z,6.5
2022-08-22T00:32:21.151Z,6.5
2022-08-22T00:38:08.485Z,7.8
2022-08-22T00:44:08.918Z,9.8
2022-08-22T00:50:06.439Z,7
2022-08-22T00:56:01.882Z,9.5
2022-08-22T01:01:50.047Z,7.7
2022-08-22T01:07:43.006Z,8
2022-08-22T01:13:35.633Z,8.5
2022-08-22T01:19:31.505Z,7.2
2022-08-22T01:25:37.175Z,5.2
2022-08-22T01:31:36.003Z,5.9
2022-08-22T01:37:28.459Z,6
2022-08-22T01:43:19.095Z,6.2
2022-08-22T01:49:07.459Z,5.2
2022-08-22T01:54:55.859Z,7.3
2022-08-22T02:00:44.303Z,8.5
2022-08-22T02:06:33.513Z,6.1
2022-08-22T02:12:26.923Z,10.3
2022-08-22T02:18:21.958Z,6
2022-08-22T02:24:07.924Z,5.4
2022-08-22T02:29:56.174Z,8.1
2022-08-22T02:35:42.512Z,7.1
2022-08-22T02:41:33.682Z,5.8
2022-08-22T02:47:23.179Z,6.9
2022-08-22T02:53:13.590Z,3.8
2022-08-22T02:59:03.019Z,5.2
2022-08-22T03:04:54.526Z,8.5
2022-08-22T03:10:41.778Z,6.9
2022-08-22T03:16:29.154Z,6.2
2022-08-22T03:22:19.107Z,3.6
2022-08-22T03:28:05.440Z,4.7
2022-08-22T03:33:53.643Z,3.8
2022-08-22T03:39:53.173Z,5.7
2022-08-22T03:45:50.061Z,5.4
2022-08-22T03:51:42.746Z,5.4
2022-08-22T03:57:40.228Z,4.3
2022-08-22T04:03:41.865Z,5.7
2022-08-22T04:09:39.357Z,4.6
2022-08-22T04:15:33.014Z,4.3
2022-08-22T04:21:30.879Z,3.9
2022-08-22T04:27:23.325Z,4.8
2022-08-22T04:33:09.669Z,5.8
2022-08-22T04:38:56.145Z,4.5
2022-08-22T04:44:41.624Z,4.5
2022-08-22T04:50:28.506Z,4.5
2022-08-22T04:56:17.227Z,4.1
2022-08-22T05:02:04.037Z,5.7
2022-08-22T05:07:51.610Z,5.6
2022-08-22T05:13:36.662Z,5.1
2022-08-22T05:19:33.303Z,4.8
2022-08-22T05:25:20.289Z,4.6
2022-08-22T05:31:06.576Z,5.5
2022-08-22T05:36:52.157Z,5.3
2022-08-22T05:42:39.426Z,4.7
2022-08-22T05:48:24.596Z,5.7
2022-08-22T05:54:11.883Z,5.3
2022-08-22T06:00:00.085Z,4.2
2022-08-22T06:05:45.791Z,5.1
2022-08-22T06:11:36.703Z,6.2
2022-08-22T06:17:23.750Z,5.8
2022-08-22T06:23:08.325Z,6.1
2022-08-22T06:28:57.875Z,5.5
2022-08-22T06:34:43.351Z,5.7
2022-08-22T06:40:30.170Z,4.6
2022-08-22T06:46:17.081Z,4.8
2022-08-22T06:52:07.704Z,5
2022-08-22T06:57:52.391Z,6.6
2022-08-22T07:03:38.179Z,6.6
2022-08-22T07:09:25.494Z,8.7
2022-08-22T07:15:20.316Z,11.1
2022-08-22T07:21:05.229Z,9.2
2022-08-22T07:26:54.635Z,10.9
2022-08-22T07:32:43.156Z,10.6
2022-08-22T07:38:32.947Z,10.4
2022-08-22T07:44:20.230Z,6.5
2022-08-22T07:50:05.491Z,7.8
2022-08-22T07:55:52.578Z,8.3
2022-08-22T08:01:37.067Z,8.4
2022-08-22T08:07:23.351Z,7.5
2022-08-22T08:13:09.373Z,7.7
2022-08-22T08:18:56.404Z,6.6
2022-08-22T08:24:47.376Z,6.6
2022-08-22T08:30:35.783Z,7.1
2022-08-22T08:36:27.039Z,6
2022-08-22T08:42:20.201Z,4.3
2022-08-22T08:48:16.276Z,6.6
2022-08-22T08:54:17.571Z,5.5
2022-08-22T09:00:07.024Z,5.8
2022-08-22T09:06:05.285Z,5.3
2022-08-22T09:12:01.825Z,9
2022-08-22T09:17:58.599Z,5.4
2022-08-22T09:24:15.118Z,6.2
2022-08-22T09:30:07.251Z,7.9
2022-08-22T09:35:57.976Z,5.3
2022-08-22T09:41:56.668Z,5.9
2022-08-22T09:47:45.509Z,6.4
2022-08-22T09:53:36.987Z,6.1
2022-08-22T09:59:24.619Z,4.6
2022-08-22T10:05:35.327Z,4.6
2022-08-22T10:11:28.697Z,4.6
2022-08-22T10:17:24.999Z,4.1
2022-08-22T10:23:16.407Z,8.2
2022-08-22T10:29:11.463Z,5.6
2022-08-22T10:34:58.323Z,4.5
2022-08-22T10:40:49.470Z,5.9
2022-08-22T10:46:36.404Z,4.9
2022-08-22T10:52:23.803Z,3.3
2022-08-22T10:58:11.876Z,2.3
2022-08-22T11:04:02.593Z,7.1
2022-08-22T11:09:57.390Z,5.5
2022-08-22T11:16:05.105Z,3.3
2022-08-22T11:22:04.711Z,4.6
2022-08-22T11:27:55.966Z,3
2022-08-22T11:33:51.083Z,4.2
2022-08-22T11:39:40.802Z,3.9
2022-08-22T11:45:32.991Z,5
2022-08-22T11:51:34.078Z,4
2022-08-22T11:57:20.261Z,4.7
2022-08-22T12:03:11.086Z,4
2022-08-22T12:09:19.722Z,3.8
2022-08-22T12:15:12.483Z,4.7
2022-08-22T12:21:12.375Z,5
2022-08-22T12:27:09.174Z,3.5
2022-08-22T12:33:06.847Z,3.2
2022-08-22T12:39:02.534Z,4.1
2022-08-22T12:44:52.018Z,3.6
2022-08-22T12:50:42.614Z,2.9
2022-08-22T12:56:36.206Z,2.9
2022-08-22T13:02:27.230Z,3.7
2022-08-22T13:08:17.448Z,3.4
2022-08-22T13:14:02.728Z,4.8
2022-08-22T13:19:55.342Z,4.2
2022-08-22T13:25:45.087Z,3.8
2022-08-22T13:31:36.011Z,3.7
2022-08-22T13:37:27.850Z,4.2
2022-08-22T13:43:17.240Z,3.7
2022-08-22T13:49:04.402Z,5.4
2022-08-22T13:54:56.557Z,3.6
2022-08-22T14:00:59.890Z,4.4
2022-08-22T14:06:48.347Z,3.8
2022-08-22T14:12:49.994Z,4.6
2022-08-22T14:18:36.678Z,5.8
2022-08-22T14:24:29.806Z,5
2022-08-22T14:30:17.268Z,6
2022-08-22T14:36:05.896Z,6.5
2022-08-22T14:42:11.150Z,5.7
2022-08-22T14:48:14.619Z,4.8
2022-08-22T14:54:08.146Z,7
2022-08-22T14:59:57.102Z,3.9
2022-08-22T15:05:48.368Z,4.8
2022-08-22T15:11:36.828Z,4.2
2022-08-22T15:17:25.901Z,3.7
2022-08-22T15:23:17.976Z,4.8
2022-08-22T15:29:07.928Z,3.3
2022-08-22T15:34:55.265Z,3.9
2022-08-22T15:40:46.629Z,2.9
2022-08-22T15:46:33.073Z,6.6
2022-08-22T15:52:27.762Z,5.6
2022-08-22T15:58:16.864Z,4.8
2022-08-22T16:04:02.472Z,6.5
2022-08-22T16:09:49.211Z,2.9
2022-08-22T16:15:44.038Z,4.3
2022-08-22T16:21:38.098Z,3.8
2022-08-22T16:27:24.739Z,3.9
2022-08-22T16:33:20.093Z,3.8
2022-08-22T16:39:03.491Z,4.1
2022-08-22T16:44:48.475Z,4.1
2022-08-22T16:50:38.302Z,4.6
2022-08-22T16:56:28.979Z,3.4
2022-08-22T17:02:32.058Z,4.8
2022-08-22T17:08:23.350Z,6
2022-08-22T17:14:14.831Z,5.3
2022-08-22T17:20:07.267Z,4.2
2022-08-22T17:25:56.893Z,3.7
2022-08-22T17:31:46.136Z,5.6
2022-08-22T17:37:37.886Z,3.7
2022-08-22T17:43:26.479Z,5.6
2022-08-22T17:49:19.014Z,5.8
2022-08-22T17:55:05.569Z,4.5
2022-08-22T18:00:52.535Z,5.2
2022-08-22T18:06:38.874Z,6.4
2022-08-22T18:12:28.346Z,3.5
2022-08-22T18:18:17.108Z,4.9
2022-08-22T18:24:03.051Z,4.4
2022-08-22T18:29:52.041Z,4.2
2022-08-22T18:35:43.186Z,4.4
2022-08-22T18:41:34.226Z,3.9
2022-08-22T18:47:23.146Z,5.9
2022-08-22T18:53:11.340Z,3.7
2022-08-22T18:59:08.250Z,3.4
2022-08-22T19:05:08.713Z,4.3
2022-08-22T19:10:57.631Z,3.3
2022-08-22T19:16:52.044Z,5.6
2022-08-22T19:22:36.582Z,3.5
2022-08-22T19:28:33.762Z,4.2
2022-08-22T19:34:29.103Z,3.9
2022-08-22T19:40:14.920Z,4.3
2022-08-22T19:45:58.789Z,3.6
2022-08-22T19:51:42.082Z,5.9
2022-08-22T19:57:30.249Z,5.7
2022-08-22T20:03:18.160Z,6.5
2022-08-22T20:09:12.694Z,4.6
2022-08-22T20:14:56.328Z,6.8
2022-08-22T20:20:46.755Z,3.6
2022-08-22T20:26:30.299Z,3.9
2022-08-22T20:32:17.218Z,3.9
2022-08-22T20:38:09.501Z,3.3
2022-08-22T20:43:55.023Z,4.3
2022-08-22T20:49:44.088Z,2.8
2022-08-22T20:55:34.103Z,3.5
2022-08-22T21:01:18.509Z,3.3
2022-08-22T21:07:05.227Z,3.3
2022-08-22T21:12:54.602Z,2.9
2022-08-22T21:18:38.798Z,4.3
2022-08-22T21:24:23.549Z,2.5
2022-08-22T21:30:08.643Z,4.2
2022-08-22T21:35:56.738Z,2.8
2022-08-22T21:41:41.346Z,2.6
2022-08-22T21:47:33.551Z,3
2022-08-22T21:53:21.798Z,2.4
2022-08-22T21:59:18.306Z,2.9
2022-08-22T22:05:07.540Z,2.7
2022-08-22T22:10:51.363Z,3.1
2022-08-22T22:16:36.287Z,2.4
2022-08-22T22:22:19.614Z,3.2
2022-08-22T22:28:05.166Z,3.4
2022-08-22T22:33:49.611Z,3.7
2022-08-22T22:39:34.082Z,3
2022-08-22T22:45:17.430Z,3.5
2022-08-22T22:51:00.886Z,3.2
2022-08-22T22:56:49.311Z,3.5
2022-08-22T23:02:32.603Z,3.2
2022-08-22T23:08:16.046Z,2.7
2022-08-22T23:13:59.378Z,4.6
2022-08-22T23:19:47.632Z,3.9
2022-08-22T23:25:32.486Z,3.5
2022-08-22T23:31:17.381Z,4.2
2022-08-22T23:37:01.394Z,2.6
2022-08-22T23:42:44.863Z,3.8
2022-08-22T23:48:29.518Z,3.3
2022-08-22T23:54:12.830Z,2.8
